N122WA KLAS-KLAS
Flight info
| Callsign | N122WA |
|---|---|
| Flight time | 0h 10m |
| Altitude | 17000 |
| Route | LAS124005 KLAS |
| Aircraft | AEST/L-SDFGRY/S |
Departure
| Time | 2026-05-04 23:31 |
|---|---|
| Airport | Harry Reid International Airport (KLAS) |
Arrival
| Time | 2026-05-04 23:42 |
|---|---|
| Airport | Harry Reid International Airport (KLAS) |
| Time | Latitude | Longitude | Altitude | Speed | Heading |
|---|---|---|---|---|---|
| 2026-05-04 23:31 | 36.02041 | -115.08367 | 5304 ft | 132 kts | 84° |
| 2026-05-04 23:31 | 36.02057 | -115.07223 | 5347 ft | 136 kts | 100° |
| 2026-05-04 23:31 | 36.01998 | -115.06056 | 5411 ft | 136 kts | 105° |
| 2026-05-04 23:32 | 36.01874 | -115.04973 | 5643 ft | 122 kts | 104° |
| 2026-05-04 23:32 | 36.01787 | -115.03884 | 5637 ft | 132 kts | 104° |
| 2026-05-04 23:32 | 36.01681 | -115.02760 | 5700 ft | 131 kts | 105° |
| 2026-05-04 23:32 | 36.01591 | -115.01627 | 5700 ft | 135 kts | 101° |
| 2026-05-04 23:33 | 36.01564 | -115.00460 | 5739 ft | 136 kts | 96° |
| 2026-05-04 23:33 | 36.01608 | -114.99248 | 5718 ft | 148 kts | 92° |
| 2026-05-04 23:33 | 36.01720 | -114.97956 | 5763 ft | 151 kts | 91° |
| 2026-05-04 23:33 | 36.01805 | -114.96665 | 5776 ft | 155 kts | 91° |
| 2026-05-04 23:34 | 36.01932 | -114.95319 | 5712 ft | 157 kts | 91° |
| 2026-05-04 23:34 | 36.02086 | -114.94003 | 5547 ft | 158 kts | 76° |
| 2026-05-04 23:34 | 36.02791 | -114.92905 | 5213 ft | 173 kts | 36° |
| 2026-05-04 23:34 | 36.03881 | -114.92357 | 5237 ft | 165 kts | 15° |
| 2026-05-04 23:35 | 36.05026 | -114.92293 | 5088 ft | 166 kts | 351° |
| 2026-05-04 23:35 | 36.06038 | -114.92839 | 4885 ft | 158 kts | 319° |
| 2026-05-04 23:35 | 36.06786 | -114.93814 | 4512 ft | 160 kts | 298° |
| 2026-05-04 23:35 | 36.07223 | -114.94965 | 4139 ft | 133 kts | 282° |
| 2026-05-04 23:36 | 36.07429 | -114.95975 | 3803 ft | 112 kts | 270° |
| 2026-05-04 23:36 | 36.07490 | -114.96878 | 3561 ft | 100 kts | 263° |
| 2026-05-04 23:36 | 36.07488 | -114.97711 | 3333 ft | 96 kts | 261° |
| 2026-05-04 23:36 | 36.07499 | -114.98526 | 3161 ft | 97 kts | 265° |
| 2026-05-04 23:37 | 36.07547 | -114.99367 | 3123 ft | 97 kts | 263° |
| 2026-05-04 23:37 | 36.07565 | -115.00193 | 3101 ft | 97 kts | 262° |
| 2026-05-04 23:37 | 36.07561 | -115.01019 | 3127 ft | 94 kts | 259° |
| 2026-05-04 23:37 | 36.07521 | -115.01815 | 3111 ft | 95 kts | 258° |
| 2026-05-04 23:38 | 36.07479 | -115.02640 | 3121 ft | 97 kts | 261° |
| 2026-05-04 23:38 | 36.07434 | -115.03472 | 3118 ft | 98 kts | 265° |
| 2026-05-04 23:38 | 36.07430 | -115.04339 | 3077 ft | 104 kts | 266° |
| 2026-05-04 23:38 | 36.07422 | -115.05234 | 3067 ft | 102 kts | 264° |
| 2026-05-04 23:39 | 36.07398 | -115.06127 | 2999 ft | 108 kts | 264° |
| 2026-05-04 23:39 | 36.07371 | -115.07044 | 2848 ft | 101 kts | 266° |
| 2026-05-04 23:39 | 36.07385 | -115.07849 | 2714 ft | 95 kts | 266° |
| 2026-05-04 23:39 | 36.07394 | -115.08655 | 2610 ft | 93 kts | 265° |
| 2026-05-04 23:40 | 36.07390 | -115.09450 | 2522 ft | 92 kts | 265° |
| 2026-05-04 23:40 | 36.07395 | -115.10226 | 2446 ft | 88 kts | 265° |
| 2026-05-04 23:40 | 36.07387 | -115.10979 | 2345 ft | 89 kts | 264° |
| 2026-05-04 23:40 | 36.07373 | -115.11730 | 2293 ft | 89 kts | 265° |
| 2026-05-04 23:41 | 36.07363 | -115.12432 | 2231 ft | 89 kts | 267° |
| 2026-05-04 23:41 | 36.07361 | -115.13079 | 2183 ft | 71 kts | 270° |
| 2026-05-04 23:41 | 36.07360 | -115.13605 | 2182 ft | 62 kts | 268° |
| 2026-05-04 23:41 | 36.07355 | -115.14161 | 2185 ft | 63 kts | 271° |
| 2026-05-04 23:42 | 36.07361 | -115.14628 | 2185 ft | 48 kts | 271° |
| 2026-05-04 23:42 | 36.07363 | -115.15016 | 2183 ft | 43 kts | 270° |
| 2026-05-04 23:42 | 36.07365 | -115.15389 | 2183 ft | 44 kts | 270° |
| 2026-05-04 23:42 | 36.07369 | -115.15761 | 2184 ft | 40 kts | 272° |
| 2026-05-04 23:43 | 36.07371 | -115.16050 | 2185 ft | 21 kts | 281° |
| 2026-05-04 23:43 | 36.07432 | -115.16124 | 2186 ft | 10 kts | 347° |
| 2026-05-04 23:43 | 36.07501 | -115.16161 | 2184 ft | 14 kts | 298° |
| 2026-05-04 23:43 | 36.07502 | -115.16314 | 2184 ft | 21 kts | 269° |
| 2026-05-04 23:44 | 36.07480 | -115.16483 | 2186 ft | 18 kts | 224° |
| 2026-05-04 23:44 | 36.07394 | -115.16563 | 2184 ft | 14 kts | 248° |
| 2026-05-04 23:44 | 36.07417 | -115.16688 | 2183 ft | 20 kts | 294° |
| 2026-05-04 23:44 | 36.07479 | -115.16849 | 2183 ft | 15 kts | 294° |
| 2026-05-04 23:45 | 36.07503 | -115.16915 | 2183 ft | 0 kts | 297° |
| 2026-05-04 23:46 | 36.07521 | -115.16963 | 2183 ft | 18 kts | 295° |
| 2026-05-04 23:46 | 36.07638 | -115.17096 | 2186 ft | 26 kts | 344° |
| 2026-05-04 23:46 | 36.07822 | -115.17112 | 2183 ft | 26 kts | 19° |
| 2026-05-04 23:47 | 36.07971 | -115.17027 | 2184 ft | 22 kts | 24° |
| 2026-05-04 23:47 | 36.08093 | -115.16956 | 2183 ft | 17 kts | 26° |
| 2026-05-04 23:47 | 36.08147 | -115.17015 | 2183 ft | 12 kts | 266° |
| 2026-05-04 23:47 | 36.08147 | -115.17103 | 2183 ft | 9 kts | 268° |
| 2026-05-04 23:48 | 36.08120 | -115.17133 | 2184 ft | 5 kts | 176° |
| 2026-05-04 23:48 | 36.08094 | -115.17128 | 2183 ft | 4 kts | 129° |
| 2026-05-04 23:48 | 36.08091 | -115.17109 | 2183 ft | 0 kts | 85° |